sensor_id;sensor_type;location;lat;lon;timestamp;temperature;humidity
54832;DHT22;40730;53.068;6.572;2022-11-27T00:00:56;6.40;99.90
54832;DHT22;40730;53.068;6.572;2022-11-27T00:03:22;6.40;99.90
54832;DHT22;40730;53.068;6.572;2022-11-27T00:05:54;6.40;99.90
54832;DHT22;40730;53.068;6.572;2022-11-27T00:08:21;6.40;99.90
54832;DHT22;40730;53.068;6.572;2022-11-27T00:10:47;6.40;99.90
54832;DHT22;40730;53.068;6.572;2022-11-27T00:13:13;6.40;99.90
54832;DHT22;40730;53.068;6.572;2022-11-27T00:15:38;6.40;99.90
54832;DHT22;40730;53.068;6.572;2022-11-27T00:18:04;6.40;99.90
54832;DHT22;40730;53.068;6.572;2022-11-27T00:20:29;6.40;99.90
54832;DHT22;40730;53.068;6.572;2022-11-27T00:22:55;6.40;99.90
54832;DHT22;40730;53.068;6.572;2022-11-27T00:25:20;6.40;99.90
54832;DHT22;40730;53.068;6.572;2022-11-27T00:27:46;6.40;99.90
54832;DHT22;40730;53.068;6.572;2022-11-27T00:30:12;6.30;99.90
54832;DHT22;40730;53.068;6.572;2022-11-27T00:32:37;6.30;99.90
54832;DHT22;40730;53.068;6.572;2022-11-27T00:35:03;6.30;99.90
54832;DHT22;40730;53.068;6.572;2022-11-27T00:37:29;6.30;99.90
54832;DHT22;40730;53.068;6.572;2022-11-27T00:39:54;6.30;99.90
54832;DHT22;40730;53.068;6.572;2022-11-27T00:42:20;6.30;99.90
54832;DHT22;40730;53.068;6.572;2022-11-27T00:44:45;6.30;99.90
54832;DHT22;40730;53.068;6.572;2022-11-27T00:47:11;6.30;99.90
54832;DHT22;40730;53.068;6.572;2022-11-27T00:49:37;6.30;99.90
54832;DHT22;40730;53.068;6.572;2022-11-27T00:52:02;6.30;99.90
54832;DHT22;40730;53.068;6.572;2022-11-27T00:54:28;6.30;99.90
54832;DHT22;40730;53.068;6.572;2022-11-27T00:56:54;6.20;99.90
54832;DHT22;40730;53.068;6.572;2022-11-27T00:59:19;6.20;99.90
54832;DHT22;40730;53.068;6.572;2022-11-27T01:01:45;6.20;99.90
54832;DHT22;40730;53.068;6.572;2022-11-27T01:04:13;6.20;99.90
54832;DHT22;40730;53.068;6.572;2022-11-27T01:06:39;6.20;99.90
54832;DHT22;40730;53.068;6.572;2022-11-27T01:09:06;6.20;99.90
54832;DHT22;40730;53.068;6.572;2022-11-27T01:11:35;6.20;99.90
54832;DHT22;40730;53.068;6.572;2022-11-27T01:14:06;6.10;99.90
54832;DHT22;40730;53.068;6.572;2022-11-27T01:16:33;6.10;99.90
54832;DHT22;40730;53.068;6.572;2022-11-27T01:18:59;6.10;99.90
54832;DHT22;40730;53.068;6.572;2022-11-27T01:21:28;6.10;99.90
54832;DHT22;40730;53.068;6.572;2022-11-27T01:23:54;6.00;99.90
54832;DHT22;40730;53.068;6.572;2022-11-27T01:26:20;6.00;99.90
54832;DHT22;40730;53.068;6.572;2022-11-27T01:28:46;5.90;99.90
54832;DHT22;40730;53.068;6.572;2022-11-27T01:31:21;5.90;99.90
54832;DHT22;40730;53.068;6.572;2022-11-27T01:33:51;5.90;99.90
54832;DHT22;40730;53.068;6.572;2022-11-27T01:36:17;5.90;99.90
54832;DHT22;40730;53.068;6.572;2022-11-27T01:38:43;5.90;99.90
54832;DHT22;40730;53.068;6.572;2022-11-27T01:41:13;5.90;99.90
54832;DHT22;40730;53.068;6.572;2022-11-27T01:46:37;5.80;99.90
54832;DHT22;40730;53.068;6.572;2022-11-27T01:51:40;5.80;99.90
54832;DHT22;40730;53.068;6.572;2022-11-27T01:54:08;5.80;99.90
54832;DHT22;40730;53.068;6.572;2022-11-27T01:56:34;5.80;99.90
54832;DHT22;40730;53.068;6.572;2022-11-27T01:59:00;5.70;99.90
54832;DHT22;40730;53.068;6.572;2022-11-27T02:01:27;5.70;99.90
54832;DHT22;40730;53.068;6.572;2022-11-27T02:03:54;5.70;99.90
54832;DHT22;40730;53.068;6.572;2022-11-27T02:06:22;5.70;99.90
54832;DHT22;40730;53.068;6.572;2022-11-27T02:08:49;5.70;99.90
54832;DHT22;40730;53.068;6.572;2022-11-27T02:11:21;5.70;99.90
54832;DHT22;40730;53.068;6.572;2022-11-27T02:13:56;5.70;99.90
54832;DHT22;40730;53.068;6.572;2022-11-27T02:16:33;5.80;99.90
54832;DHT22;40730;53.068;6.572;2022-11-27T02:22:24;5.90;99.90
54832;DHT22;40730;53.068;6.572;2022-11-27T02:30:16;5.90;99.90
54832;DHT22;40730;53.068;6.572;2022-11-27T02:32:56;5.90;99.90
54832;DHT22;40730;53.068;6.572;2022-11-27T02:35:39;5.90;99.90
54832;DHT22;40730;53.068;6.572;2022-11-27T02:43:11;5.90;99.90
54832;DHT22;40730;53.068;6.572;2022-11-27T02:45:43;5.90;99.90
54832;DHT22;40730;53.068;6.572;2022-11-27T02:48:14;5.90;99.90
54832;DHT22;40730;53.068;6.572;2022-11-27T02:50:42;5.90;99.90
54832;DHT22;40730;53.068;6.572;2022-11-27T02:53:21;5.90;99.90
54832;DHT22;40730;53.068;6.572;2022-11-27T02:55:50;5.90;99.90
54832;DHT22;40730;53.068;6.572;2022-11-27T02:58:21;5.90;99.90
54832;DHT22;40730;53.068;6.572;2022-11-27T03:00:47;5.90;99.90
54832;DHT22;40730;53.068;6.572;2022-11-27T03:03:17;5.90;99.90
54832;DHT22;40730;53.068;6.572;2022-11-27T03:05:46;5.90;99.90
54832;DHT22;40730;53.068;6.572;2022-11-27T03:08:27;5.90;99.90
54832;DHT22;40730;53.068;6.572;2022-11-27T03:11:06;6.00;99.90
54832;DHT22;40730;53.068;6.572;2022-11-27T03:13:36;6.00;99.90
54832;DHT22;40730;53.068;6.572;2022-11-27T03:21:42;6.00;99.90
54832;DHT22;40730;53.068;6.572;2022-11-27T03:24:09;6.00;99.90
54832;DHT22;40730;53.068;6.572;2022-11-27T03:26:36;6.00;99.90
54832;DHT22;40730;53.068;6.572;2022-11-27T03:29:05;6.00;99.90
54832;DHT22;40730;53.068;6.572;2022-11-27T03:31:31;6.00;99.90
54832;DHT22;40730;53.068;6.572;2022-11-27T03:33:57;6.00;99.90
54832;DHT22;40730;53.068;6.572;2022-11-27T03:36:23;6.00;99.90
54832;DHT22;40730;53.068;6.572;2022-11-27T03:38:50;6.00;99.90
54832;DHT22;40730;53.068;6.572;2022-11-27T03:44:41;6.00;99.90
54832;DHT22;40730;53.068;6.572;2022-11-27T03:58:58;5.90;99.90
54832;DHT22;40730;53.068;6.572;2022-11-27T04:01:26;5.90;99.90
54832;DHT22;40730;53.068;6.572;2022-11-27T04:03:53;5.90;99.90
54832;DHT22;40730;53.068;6.572;2022-11-27T04:06:18;5.90;99.90
54832;DHT22;40730;53.068;6.572;2022-11-27T04:08:45;5.90;99.90
54832;DHT22;40730;53.068;6.572;2022-11-27T04:11:12;5.90;99.90
54832;DHT22;40730;53.068;6.572;2022-11-27T04:13:37;5.90;99.90
54832;DHT22;40730;53.068;6.572;2022-11-27T04:16:03;5.90;99.90
54832;DHT22;40730;53.068;6.572;2022-11-27T04:18:29;6.00;99.90
54832;DHT22;40730;53.068;6.572;2022-11-27T04:20:55;6.00;99.90
54832;DHT22;40730;53.068;6.572;2022-11-27T04:23:21;6.00;99.90
54832;DHT22;40730;53.068;6.572;2022-11-27T04:25:47;6.00;99.90
54832;DHT22;40730;53.068;6.572;2022-11-27T04:28:13;6.00;99.90
54832;DHT22;40730;53.068;6.572;2022-11-27T04:30:38;6.00;99.90
54832;DHT22;40730;53.068;6.572;2022-11-27T04:33:04;6.00;99.90
54832;DHT22;40730;53.068;6.572;2022-11-27T04:35:30;6.00;99.90
54832;DHT22;40730;53.068;6.572;2022-11-27T04:37:56;6.00;99.90
54832;DHT22;40730;53.068;6.572;2022-11-27T04:40:22;6.00;99.90
54832;DHT22;40730;53.068;6.572;2022-11-27T04:42:47;6.00;99.90
54832;DHT22;40730;53.068;6.572;2022-11-27T04:45:13;6.00;99.90
54832;DHT22;40730;53.068;6.572;2022-11-27T04:47:38;5.90;99.90
54832;DHT22;40730;53.068;6.572;2022-11-27T04:50:05;5.90;99.90
54832;DHT22;40730;53.068;6.572;2022-11-27T04:52:31;5.90;99.90
54832;DHT22;40730;53.068;6.572;2022-11-27T04:54:56;5.90;99.90
54832;DHT22;40730;53.068;6.572;2022-11-27T04:57:22;5.90;99.90
54832;DHT22;40730;53.068;6.572;2022-11-27T04:59:47;5.90;99.90
54832;DHT22;40730;53.068;6.572;2022-11-27T05:02:13;5.90;99.90
54832;DHT22;40730;53.068;6.572;2022-11-27T05:04:39;5.90;99.90
54832;DHT22;40730;53.068;6.572;2022-11-27T05:07:04;5.90;99.90
54832;DHT22;40730;53.068;6.572;2022-11-27T05:09:30;5.90;99.90
54832;DHT22;40730;53.068;6.572;2022-11-27T05:11:55;5.90;99.90
54832;DHT22;40730;53.068;6.572;2022-11-27T05:14:21;5.90;99.90
54832;DHT22;40730;53.068;6.572;2022-11-27T05:16:52;5.90;99.90
54832;DHT22;40730;53.068;6.572;2022-11-27T05:19:20;5.90;99.90
54832;DHT22;40730;53.068;6.572;2022-11-27T05:21:47;5.90;99.90
54832;DHT22;40730;53.068;6.572;2022-11-27T05:24:13;5.90;99.90
54832;DHT22;40730;53.068;6.572;2022-11-27T05:26:39;5.90;99.90
54832;DHT22;40730;53.068;6.572;2022-11-27T05:29:06;5.90;99.90
54832;DHT22;40730;53.068;6.572;2022-11-27T05:31:33;5.80;99.90
54832;DHT22;40730;53.068;6.572;2022-11-27T05:33:58;5.80;99.90
54832;DHT22;40730;53.068;6.572;2022-11-27T05:36:24;5.80;99.90
54832;DHT22;40730;53.068;6.572;2022-11-27T05:38:49;5.80;99.90
54832;DHT22;40730;53.068;6.572;2022-11-27T05:41:15;5.70;99.90
54832;DHT22;40730;53.068;6.572;2022-11-27T05:43:41;5.70;99.90
54832;DHT22;40730;53.068;6.572;2022-11-27T05:46:09;5.70;99.90
54832;DHT22;40730;53.068;6.572;2022-11-27T05:48:35;5.70;99.90
54832;DHT22;40730;53.068;6.572;2022-11-27T05:51:02;5.70;99.90
54832;DHT22;40730;53.068;6.572;2022-11-27T05:53:28;5.70;99.90
54832;DHT22;40730;53.068;6.572;2022-11-27T05:55:59;5.70;99.90
54832;DHT22;40730;53.068;6.572;2022-11-27T05:58:24;5.70;99.90
54832;DHT22;40730;53.068;6.572;2022-11-27T06:00:51;5.70;99.90
54832;DHT22;40730;53.068;6.572;2022-11-27T06:03:16;5.70;99.90
54832;DHT22;40730;53.068;6.572;2022-11-27T06:05:42;5.80;99.90
54832;DHT22;40730;53.068;6.572;2022-11-27T06:08:07;5.70;99.90
54832;DHT22;40730;53.068;6.572;2022-11-27T06:10:33;5.70;99.90
54832;DHT22;40730;53.068;6.572;2022-11-27T06:12:58;5.70;99.90
54832;DHT22;40730;53.068;6.572;2022-11-27T06:15:24;5.80;99.90
54832;DHT22;40730;53.068;6.572;2022-11-27T06:17:49;5.80;99.90
54832;DHT22;40730;53.068;6.572;2022-11-27T06:20:16;5.80;99.90
54832;DHT22;40730;53.068;6.572;2022-11-27T06:22:41;5.80;99.90
54832;DHT22;40730;53.068;6.572;2022-11-27T06:25:07;5.80;99.90
54832;DHT22;40730;53.068;6.572;2022-11-27T06:27:34;5.80;99.90
54832;DHT22;40730;53.068;6.572;2022-11-27T06:30:00;5.80;99.90
54832;DHT22;40730;53.068;6.572;2022-11-27T06:32:26;5.80;99.90
54832;DHT22;40730;53.068;6.572;2022-11-27T06:34:52;5.80;99.90
54832;DHT22;40730;53.068;6.572;2022-11-27T06:37:17;5.80;99.90
54832;DHT22;40730;53.068;6.572;2022-11-27T06:39:43;5.80;99.90
54832;DHT22;40730;53.068;6.572;2022-11-27T06:42:08;5.80;99.90
54832;DHT22;40730;53.068;6.572;2022-11-27T06:44:34;5.80;99.90
54832;DHT22;40730;53.068;6.572;2022-11-27T06:47:00;5.80;99.90
54832;DHT22;40730;53.068;6.572;2022-11-27T06:49:25;5.90;99.90
54832;DHT22;40730;53.068;6.572;2022-11-27T06:51:51;5.90;99.90
54832;DHT22;40730;53.068;6.572;2022-11-27T06:54:17;5.90;99.90
54832;DHT22;40730;53.068;6.572;2022-11-27T06:56:42;5.90;99.90
54832;DHT22;40730;53.068;6.572;2022-11-27T06:59:11;5.90;99.90
54832;DHT22;40730;53.068;6.572;2022-11-27T07:01:39;5.90;99.90
54832;DHT22;40730;53.068;6.572;2022-11-27T07:04:05;5.90;99.90
54832;DHT22;40730;53.068;6.572;2022-11-27T07:06:30;5.90;99.90
54832;DHT22;40730;53.068;6.572;2022-11-27T07:08:56;5.90;99.90
54832;DHT22;40730;53.068;6.572;2022-11-27T07:11:25;5.90;99.90
54832;DHT22;40730;53.068;6.572;2022-11-27T07:13:53;5.80;99.90
54832;DHT22;40730;53.068;6.572;2022-11-27T07:16:19;5.80;99.90
54832;DHT22;40730;53.068;6.572;2022-11-27T07:18:49;5.80;99.90
54832;DHT22;40730;53.068;6.572;2022-11-27T07:21:16;5.90;99.90
54832;DHT22;40730;53.068;6.572;2022-11-27T07:23:42;5.80;99.90
54832;DHT22;40730;53.068;6.572;2022-11-27T07:26:16;5.90;99.90
54832;DHT22;40730;53.068;6.572;2022-11-27T07:28:42;5.80;99.90
54832;DHT22;40730;53.068;6.572;2022-11-27T07:31:09;5.80;99.90
54832;DHT22;40730;53.068;6.572;2022-11-27T07:33:35;5.90;99.90
54832;DHT22;40730;53.068;6.572;2022-11-27T07:36:16;5.80;99.90
54832;DHT22;40730;53.068;6.572;2022-11-27T07:38:42;5.90;99.90
54832;DHT22;40730;53.068;6.572;2022-11-27T07:41:08;5.90;99.90
54832;DHT22;40730;53.068;6.572;2022-11-27T07:43:35;5.80;99.90
54832;DHT22;40730;53.068;6.572;2022-11-27T07:46:07;5.80;99.90
54832;DHT22;40730;53.068;6.572;2022-11-27T07:48:33;5.90;99.90
54832;DHT22;40730;53.068;6.572;2022-11-27T07:50:59;5.80;99.90
54832;DHT22;40730;53.068;6.572;2022-11-27T07:53:24;5.80;99.90
54832;DHT22;40730;53.068;6.572;2022-11-27T07:55:50;5.80;99.90
54832;DHT22;40730;53.068;6.572;2022-11-27T07:58:16;5.80;99.90
54832;DHT22;40730;53.068;6.572;2022-11-27T08:00:41;5.90;99.90
54832;DHT22;40730;53.068;6.572;2022-11-27T08:03:08;5.90;99.90
54832;DHT22;40730;53.068;6.572;2022-11-27T08:05:35;5.90;99.90
54832;DHT22;40730;53.068;6.572;2022-11-27T08:08:02;5.90;99.90
54832;DHT22;40730;53.068;6.572;2022-11-27T08:10:29;5.90;99.90
54832;DHT22;40730;53.068;6.572;2022-11-27T08:12:56;6.00;99.90
54832;DHT22;40730;53.068;6.572;2022-11-27T08:15:22;6.00;99.90
54832;DHT22;40730;53.068;6.572;2022-11-27T08:17:48;6.00;99.90
54832;DHT22;40730;53.068;6.572;2022-11-27T08:20:13;6.10;99.90
54832;DHT22;40730;53.068;6.572;2022-11-27T08:22:39;6.10;99.90
54832;DHT22;40730;53.068;6.572;2022-11-27T08:25:05;6.10;99.90
54832;DHT22;40730;53.068;6.572;2022-11-27T08:27:31;6.10;99.90
54832;DHT22;40730;53.068;6.572;2022-11-27T08:29:58;6.10;99.90
54832;DHT22;40730;53.068;6.572;2022-11-27T08:32:24;6.10;99.90
54832;DHT22;40730;53.068;6.572;2022-11-27T08:34:49;6.10;99.90
54832;DHT22;40730;53.068;6.572;2022-11-27T08:37:15;6.10;99.90
54832;DHT22;40730;53.068;6.572;2022-11-27T08:39:40;6.10;99.90
54832;DHT22;40730;53.068;6.572;2022-11-27T08:42:06;6.10;99.90
54832;DHT22;40730;53.068;6.572;2022-11-27T08:44:32;6.10;99.90
54832;DHT22;40730;53.068;6.572;2022-11-27T08:46:57;6.10;99.90
54832;DHT22;40730;53.068;6.572;2022-11-27T08:49:23;6.10;99.90
54832;DHT22;40730;53.068;6.572;2022-11-27T08:51:48;6.10;99.90
54832;DHT22;40730;53.068;6.572;2022-11-27T08:54:17;6.10;99.90
54832;DHT22;40730;53.068;6.572;2022-11-27T08:57:40;6.10;99.90
54832;DHT22;40730;53.068;6.572;2022-11-27T09:00:07;6.10;99.90
54832;DHT22;40730;53.068;6.572;2022-11-27T09:02:33;6.10;99.90
54832;DHT22;40730;53.068;6.572;2022-11-27T09:04:59;6.10;99.90
54832;DHT22;40730;53.068;6.572;2022-11-27T09:07:27;6.10;99.90
54832;DHT22;40730;53.068;6.572;2022-11-27T09:09:52;6.10;99.90
54832;DHT22;40730;53.068;6.572;2022-11-27T09:12:18;6.10;99.90
54832;DHT22;40730;53.068;6.572;2022-11-27T09:14:44;6.10;99.90
54832;DHT22;40730;53.068;6.572;2022-11-27T09:17:09;6.10;99.90
54832;DHT22;40730;53.068;6.572;2022-11-27T09:19:35;6.10;99.90
54832;DHT22;40730;53.068;6.572;2022-11-27T09:22:00;6.10;99.90
54832;DHT22;40730;53.068;6.572;2022-11-27T09:24:26;6.10;99.90
54832;DHT22;40730;53.068;6.572;2022-11-27T09:26:52;6.20;99.90
54832;DHT22;40730;53.068;6.572;2022-11-27T09:29:17;6.20;99.90
54832;DHT22;40730;53.068;6.572;2022-11-27T09:31:43;6.20;99.90
54832;DHT22;40730;53.068;6.572;2022-11-27T09:34:08;6.20;99.90
54832;DHT22;40730;53.068;6.572;2022-11-27T09:36:34;6.20;99.90
54832;DHT22;40730;53.068;6.572;2022-11-27T09:38:59;6.20;99.90
54832;DHT22;40730;53.068;6.572;2022-11-27T09:41:54;6.30;99.90
54832;DHT22;40730;53.068;6.572;2022-11-27T09:47:04;6.30;99.90
54832;DHT22;40730;53.068;6.572;2022-11-27T09:49:35;6.30;99.90
54832;DHT22;40730;53.068;6.572;2022-11-27T09:52:04;6.30;99.90
54832;DHT22;40730;53.068;6.572;2022-11-27T09:54:47;6.30;99.90
54832;DHT22;40730;53.068;6.572;2022-11-27T09:57:16;6.20;99.90
54832;DHT22;40730;53.068;6.572;2022-11-27T09:59:51;6.20;99.90
54832;DHT22;40730;53.068;6.572;2022-11-27T10:02:30;6.20;99.90
54832;DHT22;40730;53.068;6.572;2022-11-27T10:04:56;6.20;99.90
54832;DHT22;40730;53.068;6.572;2022-11-27T10:07:49;6.20;99.90
54832;DHT22;40730;53.068;6.572;2022-11-27T10:10:38;6.20;99.90
54832;DHT22;40730;53.068;6.572;2022-11-27T10:15:44;6.20;99.90
54832;DHT22;40730;53.068;6.572;2022-11-27T10:18:30;6.20;99.90
54832;DHT22;40730;53.068;6.572;2022-11-27T10:21:30;6.10;99.90
54832;DHT22;40730;53.068;6.572;2022-11-27T10:24:03;6.20;99.90
54832;DHT22;40730;53.068;6.572;2022-11-27T10:26:33;6.20;99.90
54832;DHT22;40730;53.068;6.572;2022-11-27T10:29:13;6.10;99.90
54832;DHT22;40730;53.068;6.572;2022-11-27T10:31:53;6.10;99.90
54832;DHT22;40730;53.068;6.572;2022-11-27T10:34:33;6.10;99.90
54832;DHT22;40730;53.068;6.572;2022-11-27T10:37:21;6.10;99.90
54832;DHT22;40730;53.068;6.572;2022-11-27T10:39:58;6.10;99.90
54832;DHT22;40730;53.068;6.572;2022-11-27T10:47:51;6.10;99.90
54832;DHT22;40730;53.068;6.572;2022-11-27T10:50:18;6.10;99.90
54832;DHT22;40730;53.068;6.572;2022-11-27T10:55:33;6.10;99.90
54832;DHT22;40730;53.068;6.572;2022-11-27T10:58:08;6.10;99.90
54832;DHT22;40730;53.068;6.572;2022-11-27T11:00:35;6.10;99.90
54832;DHT22;40730;53.068;6.572;2022-11-27T11:03:03;6.10;99.90
54832;DHT22;40730;53.068;6.572;2022-11-27T11:05:30;6.10;99.90
54832;DHT22;40730;53.068;6.572;2022-11-27T11:10:42;6.10;99.90
54832;DHT22;40730;53.068;6.572;2022-11-27T11:13:18;6.20;99.90
54832;DHT22;40730;53.068;6.572;2022-11-27T11:15:53;6.20;99.90
54832;DHT22;40730;53.068;6.572;2022-11-27T11:18:34;6.20;99.90
54832;DHT22;40730;53.068;6.572;2022-11-27T11:21:02;6.20;99.90
54832;DHT22;40730;53.068;6.572;2022-11-27T11:23:30;6.20;99.90
54832;DHT22;40730;53.068;6.572;2022-11-27T11:28:39;6.10;99.90
54832;DHT22;40730;53.068;6.572;2022-11-27T11:31:10;6.20;99.90
54832;DHT22;40730;53.068;6.572;2022-11-27T11:33:59;6.20;99.90
54832;DHT22;40730;53.068;6.572;2022-11-27T11:36:26;6.20;99.90
54832;DHT22;40730;53.068;6.572;2022-11-27T11:38:52;6.20;99.90
54832;DHT22;40730;53.068;6.572;2022-11-27T11:41:18;6.30;99.90
54832;DHT22;40730;53.068;6.572;2022-11-27T11:43:59;6.30;99.90
54832;DHT22;40730;53.068;6.572;2022-11-27T11:46:28;6.30;99.90
54832;DHT22;40730;53.068;6.572;2022-11-27T11:49:23;6.30;99.90
54832;DHT22;40730;53.068;6.572;2022-11-27T12:16:02;6.40;99.90
54832;DHT22;40730;53.068;6.572;2022-11-27T12:21:30;6.50;99.90
54832;DHT22;40730;53.068;6.572;2022-11-27T12:24:14;6.50;99.90
54832;DHT22;40730;53.068;6.572;2022-11-27T12:26:59;6.50;99.90
54832;DHT22;40730;53.068;6.572;2022-11-27T12:38:29;6.60;99.90
54832;DHT22;40730;53.068;6.572;2022-11-27T12:41:15;6.60;99.90
54832;DHT22;40730;53.068;6.572;2022-11-27T12:43:48;6.50;99.90
54832;DHT22;40730;53.068;6.572;2022-11-27T12:46:39;6.50;99.90
54832;DHT22;40730;53.068;6.572;2022-11-27T12:49:14;6.50;99.90
54832;DHT22;40730;53.068;6.572;2022-11-27T12:51:49;6.50;99.90
54832;DHT22;40730;53.068;6.572;2022-11-27T12:57:12;6.60;99.90
54832;DHT22;40730;53.068;6.572;2022-11-27T12:59:50;6.50;99.90
54832;DHT22;40730;53.068;6.572;2022-11-27T13:03:29;6.50;99.90
54832;DHT22;40730;53.068;6.572;2022-11-27T13:05:43;6.50;99.90
54832;DHT22;40730;53.068;6.572;2022-11-27T13:08:27;6.40;99.90
54832;DHT22;40730;53.068;6.572;2022-11-27T13:11:00;6.40;99.90
54832;DHT22;40730;53.068;6.572;2022-11-27T13:13:54;6.50;99.90
54832;DHT22;40730;53.068;6.572;2022-11-27T13:17:09;6.40;99.90
54832;DHT22;40730;53.068;6.572;2022-11-27T13:21:44;6.50;99.90
54832;DHT22;40730;53.068;6.572;2022-11-27T13:24:11;6.40;99.90
54832;DHT22;40730;53.068;6.572;2022-11-27T13:27:00;6.40;99.90
54832;DHT22;40730;53.068;6.572;2022-11-27T13:32:04;6.40;99.90
54832;DHT22;40730;53.068;6.572;2022-11-27T13:34:32;6.40;99.90
54832;DHT22;40730;53.068;6.572;2022-11-27T13:37:06;6.40;99.90
54832;DHT22;40730;53.068;6.572;2022-11-27T13:39:40;6.40;99.90
54832;DHT22;40730;53.068;6.572;2022-11-27T13:42:17;6.30;99.90
54832;DHT22;40730;53.068;6.572;2022-11-27T13:44:53;6.30;99.90
54832;DHT22;40730;53.068;6.572;2022-11-27T13:47:20;6.30;99.90
54832;DHT22;40730;53.068;6.572;2022-11-27T13:49:58;6.30;99.90
54832;DHT22;40730;53.068;6.572;2022-11-27T13:52:25;6.30;99.90
54832;DHT22;40730;53.068;6.572;2022-11-27T13:54:59;6.30;99.90
54832;DHT22;40730;53.068;6.572;2022-11-27T13:57:26;6.30;99.90
54832;DHT22;40730;53.068;6.572;2022-11-27T14:00:03;6.30;99.90
54832;DHT22;40730;53.068;6.572;2022-11-27T14:02:46;6.30;99.90
54832;DHT22;40730;53.068;6.572;2022-11-27T14:05:14;6.30;99.90
54832;DHT22;40730;53.068;6.572;2022-11-27T14:07:43;6.20;99.90
54832;DHT22;40730;53.068;6.572;2022-11-27T14:10:14;6.20;99.90
54832;DHT22;40730;53.068;6.572;2022-11-27T14:12:41;6.30;99.90
54832;DHT22;40730;53.068;6.572;2022-11-27T14:17:45;6.20;99.90
54832;DHT22;40730;53.068;6.572;2022-11-27T14:22:49;6.20;99.90
54832;DHT22;40730;53.068;6.572;2022-11-27T14:25:19;6.20;99.90
54832;DHT22;40730;53.068;6.572;2022-11-27T14:27:46;6.20;99.90
54832;DHT22;40730;53.068;6.572;2022-11-27T14:30:24;6.20;99.90
54832;DHT22;40730;53.068;6.572;2022-11-27T14:32:50;6.20;99.90
54832;DHT22;40730;53.068;6.572;2022-11-27T14:35:24;6.10;99.90
54832;DHT22;40730;53.068;6.572;2022-11-27T14:37:50;6.10;99.90
54832;DHT22;40730;53.068;6.572;2022-11-27T14:40:25;6.10;99.90
54832;DHT22;40730;53.068;6.572;2022-11-27T14:42:51;6.10;99.90
54832;DHT22;40730;53.068;6.572;2022-11-27T14:45:20;6.50;99.90
54832;DHT22;40730;53.068;6.572;2022-11-27T14:47:53;6.10;99.90
54832;DHT22;40730;53.068;6.572;2022-11-27T14:50:20;6.10;99.90
54832;DHT22;40730;53.068;6.572;2022-11-27T14:52:51;6.10;99.90
54832;DHT22;40730;53.068;6.572;2022-11-27T14:55:18;6.10;99.90
54832;DHT22;40730;53.068;6.572;2022-11-27T14:57:46;6.10;99.90
54832;DHT22;40730;53.068;6.572;2022-11-27T15:00:23;6.10;99.90
54832;DHT22;40730;53.068;6.572;2022-11-27T15:02:52;6.00;99.90
54832;DHT22;40730;53.068;6.572;2022-11-27T15:05:27;6.00;99.90
54832;DHT22;40730;53.068;6.572;2022-11-27T15:07:55;6.00;99.90
54832;DHT22;40730;53.068;6.572;2022-11-27T15:10:38;6.10;99.90
54832;DHT22;40730;53.068;6.572;2022-11-27T15:13:06;6.10;99.90
54832;DHT22;40730;53.068;6.572;2022-11-27T15:15:41;6.10;99.90
54832;DHT22;40730;53.068;6.572;2022-11-27T15:18:08;6.10;99.90
54832;DHT22;40730;53.068;6.572;2022-11-27T15:20:44;6.10;99.90
54832;DHT22;40730;53.068;6.572;2022-11-27T15:23:16;6.10;99.90
54832;DHT22;40730;53.068;6.572;2022-11-27T15:25:45;6.10;99.90
54832;DHT22;40730;53.068;6.572;2022-11-27T15:28:53;6.10;99.90
54832;DHT22;40730;53.068;6.572;2022-11-27T15:31:32;6.10;99.90
54832;DHT22;40730;53.068;6.572;2022-11-27T15:34:02;6.10;99.90
54832;DHT22;40730;53.068;6.572;2022-11-27T15:36:37;6.10;99.90
54832;DHT22;40730;53.068;6.572;2022-11-27T15:39:34;6.10;99.90
54832;DHT22;40730;53.068;6.572;2022-11-27T15:42:02;6.10;99.90
54832;DHT22;40730;53.068;6.572;2022-11-27T15:44:30;6.20;99.90
54832;DHT22;40730;53.068;6.572;2022-11-27T15:46:58;6.20;99.90
54832;DHT22;40730;53.068;6.572;2022-11-27T15:49:24;6.20;99.90
54832;DHT22;40730;53.068;6.572;2022-11-27T15:51:50;6.20;99.90
54832;DHT22;40730;53.068;6.572;2022-11-27T15:54:16;6.20;99.90
54832;DHT22;40730;53.068;6.572;2022-11-27T15:56:42;6.20;99.90
54832;DHT22;40730;53.068;6.572;2022-11-27T15:59:09;6.20;99.90
54832;DHT22;40730;53.068;6.572;2022-11-27T16:01:35;6.20;99.90
54832;DHT22;40730;53.068;6.572;2022-11-27T16:04:01;6.30;99.90
54832;DHT22;40730;53.068;6.572;2022-11-27T16:06:27;6.30;99.90
54832;DHT22;40730;53.068;6.572;2022-11-27T16:08:57;6.30;99.90
54832;DHT22;40730;53.068;6.572;2022-11-27T16:11:23;6.30;99.90
54832;DHT22;40730;53.068;6.572;2022-11-27T16:13:49;6.30;99.90
54832;DHT22;40730;53.068;6.572;2022-11-27T16:16:16;6.30;99.90
54832;DHT22;40730;53.068;6.572;2022-11-27T16:18:42;6.30;99.90
54832;DHT22;40730;53.068;6.572;2022-11-27T16:21:09;6.30;99.90
54832;DHT22;40730;53.068;6.572;2022-11-27T16:23:37;6.30;99.90
54832;DHT22;40730;53.068;6.572;2022-11-27T16:26:03;6.30;99.90
54832;DHT22;40730;53.068;6.572;2022-11-27T16:28:30;6.30;99.90
54832;DHT22;40730;53.068;6.572;2022-11-27T16:30:58;6.30;99.90
54832;DHT22;40730;53.068;6.572;2022-11-27T16:33:25;6.30;99.90
54832;DHT22;40730;53.068;6.572;2022-11-27T16:35:51;6.30;99.90
54832;DHT22;40730;53.068;6.572;2022-11-27T16:38:17;6.30;99.90
54832;DHT22;40730;53.068;6.572;2022-11-27T16:40:42;6.30;99.90
54832;DHT22;40730;53.068;6.572;2022-11-27T16:43:08;6.20;99.90
54832;DHT22;40730;53.068;6.572;2022-11-27T16:45:35;6.30;99.90
54832;DHT22;40730;53.068;6.572;2022-11-27T16:48:01;6.30;99.90
54832;DHT22;40730;53.068;6.572;2022-11-27T16:50:27;6.30;99.90
54832;DHT22;40730;53.068;6.572;2022-11-27T16:52:54;6.30;99.90
54832;DHT22;40730;53.068;6.572;2022-11-27T16:55:20;6.30;99.90
54832;DHT22;40730;53.068;6.572;2022-11-27T16:57:46;6.30;99.90
54832;DHT22;40730;53.068;6.572;2022-11-27T17:00:12;6.30;99.90
54832;DHT22;40730;53.068;6.572;2022-11-27T17:02:38;6.20;99.90
54832;DHT22;40730;53.068;6.572;2022-11-27T17:05:04;6.30;99.90
54832;DHT22;40730;53.068;6.572;2022-11-27T17:07:30;6.30;99.90
54832;DHT22;40730;53.068;6.572;2022-11-27T17:09:56;6.30;99.90
54832;DHT22;40730;53.068;6.572;2022-11-27T17:12:21;6.30;99.90
54832;DHT22;40730;53.068;6.572;2022-11-27T17:14:47;6.30;99.90
54832;DHT22;40730;53.068;6.572;2022-11-27T17:17:12;6.30;99.90
54832;DHT22;40730;53.068;6.572;2022-11-27T17:19:38;6.30;99.90
54832;DHT22;40730;53.068;6.572;2022-11-27T17:22:04;6.30;99.90
54832;DHT22;40730;53.068;6.572;2022-11-27T17:24:29;6.30;99.90
54832;DHT22;40730;53.068;6.572;2022-11-27T17:26:55;6.40;99.90
54832;DHT22;40730;53.068;6.572;2022-11-27T17:29:21;6.40;99.90
54832;DHT22;40730;53.068;6.572;2022-11-27T17:31:48;6.40;99.90
54832;DHT22;40730;53.068;6.572;2022-11-27T17:34:15;6.40;99.90
54832;DHT22;40730;53.068;6.572;2022-11-27T17:36:41;6.40;99.90
54832;DHT22;40730;53.068;6.572;2022-11-27T17:39:08;6.40;99.90
54832;DHT22;40730;53.068;6.572;2022-11-27T17:41:34;6.40;99.90
54832;DHT22;40730;53.068;6.572;2022-11-27T17:44:02;6.40;99.90
54832;DHT22;40730;53.068;6.572;2022-11-27T17:46:28;6.40;99.90